createdAt,value
2022-08-26T00:01:37.097Z,47.68
2022-08-26T00:04:04.107Z,47.61
2022-08-26T00:06:32.695Z,48.01
2022-08-26T00:08:59.835Z,47.93
2022-08-26T00:11:27.212Z,47.87
2022-08-26T00:13:57.911Z,48.05
2022-08-26T00:16:26.773Z,47.90
2022-08-26T00:18:54.383Z,48.02
2022-08-26T00:21:21.150Z,47.81
2022-08-26T00:23:48.905Z,47.77
2022-08-26T00:26:15.790Z,48.06
2022-08-26T00:28:42.766Z,47.87
2022-08-26T00:31:10.952Z,48.02
2022-08-26T00:33:39.571Z,48.30
2022-08-26T00:36:07.223Z,48.21
2022-08-26T00:38:37.881Z,48.28
2022-08-26T00:41:06.540Z,48.36
2022-08-26T00:43:46.104Z,48.57
2022-08-26T00:46:17.534Z,48.57
2022-08-26T00:48:46.162Z,48.54
2022-08-26T00:51:19.391Z,48.82
2022-08-26T00:53:51.157Z,48.85
2022-08-26T00:56:34.018Z,48.76
2022-08-26T00:59:11.276Z,48.65
2022-08-26T01:01:42.434Z,49.03
2022-08-26T01:04:16.402Z,48.75
2022-08-26T01:06:44.306Z,49.06
2022-08-26T01:09:11.907Z,49.29
2022-08-26T01:11:38.937Z,48.96
2022-08-26T01:14:07.136Z,49.12
2022-08-26T01:16:35.940Z,49.12
2022-08-26T01:19:10.803Z,49.21
2022-08-26T01:21:48.560Z,49.34
2022-08-26T01:24:16.003Z,49.40
2022-08-26T01:26:43.406Z,49.60
2022-08-26T01:29:13.859Z,49.82
2022-08-26T01:31:44.661Z,49.68
2022-08-26T01:34:17.419Z,49.78
2022-08-26T01:36:49.229Z,49.81
2022-08-26T01:39:18.585Z,49.81
2022-08-26T01:41:45.625Z,50.19
2022-08-26T01:44:18.653Z,50.16
2022-08-26T01:46:47.340Z,50.37
2022-08-26T01:49:14.675Z,50.12
2022-08-26T01:51:44.470Z,50.17
2022-08-26T01:54:13.779Z,50.17
2022-08-26T01:56:40.912Z,50.15
2022-08-26T01:59:10.870Z,50.01
2022-08-26T02:01:39.378Z,50.20
2022-08-26T02:04:26.188Z,50.51
2022-08-26T02:06:53.626Z,50.42
2022-08-26T02:09:21.348Z,50.54
2022-08-26T02:11:48.594Z,50.81
2022-08-26T02:14:22.319Z,50.56
2022-08-26T02:16:51.934Z,50.60
2022-08-26T02:19:24.602Z,50.45
2022-08-26T02:21:52.304Z,50.62
2022-08-26T02:24:27.228Z,50.85
2022-08-26T02:26:55.115Z,50.39
2022-08-26T02:29:25.918Z,50.75
2022-08-26T02:31:53.299Z,50.54
2022-08-26T02:34:22.951Z,50.76
2022-08-26T02:36:49.814Z,50.95
2022-08-26T02:39:22.142Z,50.69
2022-08-26T02:41:49.417Z,50.97
2022-08-26T02:44:16.130Z,51.10
2022-08-26T02:46:46.819Z,51.28
2022-08-26T02:49:15.340Z,51.51
2022-08-26T02:51:43.962Z,51.24
2022-08-26T02:54:10.773Z,51.24
2022-08-26T02:56:37.563Z,51.43
2022-08-26T02:59:04.352Z,51.19
2022-08-26T03:01:34.888Z,51.61
2022-08-26T03:04:03.566Z,51.25
2022-08-26T03:06:30.947Z,51.42
2022-08-26T03:08:57.795Z,51.58
2022-08-26T03:11:27.624Z,51.46
2022-08-26T03:13:58.942Z,51.75
2022-08-26T03:16:25.668Z,51.74
2022-08-26T03:19:00.522Z,51.59
2022-08-26T03:21:27.210Z,51.42
2022-08-26T03:23:53.950Z,51.76
2022-08-26T03:26:21.138Z,51.57
2022-08-26T03:29:06.425Z,51.65
2022-08-26T03:31:33.401Z,51.80
2022-08-26T03:34:00.114Z,51.58
2022-08-26T03:36:27.334Z,52.14
2022-08-26T03:38:54.418Z,51.72
2022-08-26T03:41:25.672Z,52.02
2022-08-26T03:43:53.452Z,52.09
2022-08-26T03:46:20.647Z,52.28
2022-08-26T03:48:47.851Z,52.37
2022-08-26T03:51:19.049Z,52.51
2022-08-26T03:53:46.470Z,52.32
2022-08-26T03:56:13.203Z,52.07
2022-08-26T03:58:42.962Z,52.28
2022-08-26T04:01:10.051Z,52.63
2022-08-26T04:03:55.392Z,52.22
2022-08-26T04:06:22.449Z,52.42
2022-08-26T04:08:51.147Z,53.03
2022-08-26T04:11:19.910Z,52.98
2022-08-26T04:13:47.667Z,52.66
2022-08-26T04:16:17.894Z,52.72
2022-08-26T04:18:46.917Z,52.49
2022-08-26T04:21:15.321Z,52.68
2022-08-26T04:23:47.276Z,52.56
2022-08-26T04:26:16.105Z,52.34
2022-08-26T04:28:42.894Z,52.62
2022-08-26T04:31:14.892Z,52.70
2022-08-26T04:33:43.387Z,52.88
2022-08-26T04:36:10.422Z,52.89
2022-08-26T04:38:37.243Z,52.85
2022-08-26T04:41:05.412Z,52.79
2022-08-26T04:43:32.339Z,52.92
2022-08-26T04:46:04.096Z,52.91
2022-08-26T04:48:31.948Z,52.93
2022-08-26T04:50:59.910Z,53.14
2022-08-26T04:53:27.941Z,53.07
2022-08-26T04:55:55.206Z,52.67
2022-08-26T04:58:24.829Z,53.04
2022-08-26T05:00:53.897Z,53.14
2022-08-26T05:03:21.168Z,53.08
2022-08-26T05:05:52.020Z,52.97
2022-08-26T05:08:20.380Z,52.91
2022-08-26T05:10:50.674Z,52.78
2022-08-26T05:13:18.285Z,53.06
2022-08-26T05:15:48.343Z,52.29
2022-08-26T05:18:17.701Z,52.46
2022-08-26T05:20:49.689Z,52.59
2022-08-26T05:23:17.198Z,52.54
2022-08-26T05:25:46.530Z,52.64
2022-08-26T05:28:15.273Z,52.27
2022-08-26T05:30:42.596Z,52.17
2022-08-26T05:33:11.626Z,51.88
2022-08-26T05:35:39.228Z,51.99
2022-08-26T05:38:12.441Z,51.96
2022-08-26T05:40:45.577Z,52.02
2022-08-26T05:43:13.987Z,51.97
2022-08-26T05:45:46.501Z,51.51
2022-08-26T05:48:16.143Z,51.83
2022-08-26T05:50:46.372Z,51.28
2022-08-26T05:53:15.175Z,51.18
2022-08-26T05:55:52.525Z,51.35
2022-08-26T05:58:21.194Z,50.90
2022-08-26T06:01:14.530Z,51.11
2022-08-26T06:03:44.782Z,50.52
2022-08-26T06:06:15.725Z,50.47
2022-08-26T06:08:47.862Z,50.28
2022-08-26T06:11:18.789Z,50.42
2022-08-26T06:13:46.418Z,50.57
2022-08-26T06:16:15.598Z,50.55
2022-08-26T06:18:46.108Z,50.33
2022-08-26T06:21:15.438Z,50.17
2022-08-26T06:24:02.162Z,50.48
2022-08-26T06:26:29.790Z,50.59
2022-08-26T06:28:57.162Z,50.36
2022-08-26T06:31:25.323Z,50.36
2022-08-26T06:33:52.562Z,49.95
2022-08-26T06:36:22.978Z,50.17
2022-08-26T06:38:51.489Z,50.01
2022-08-26T06:41:23.193Z,50.51
2022-08-26T06:43:50.487Z,50.13
2022-08-26T06:46:19.160Z,50.60
2022-08-26T06:48:46.523Z,50.56
2022-08-26T06:51:16.017Z,50.23
2022-08-26T06:53:45.693Z,50.40
2022-08-26T06:56:13.915Z,50.61
2022-08-26T06:58:41.154Z,50.27
2022-08-26T07:01:29.495Z,50.19
2022-08-26T07:03:58.130Z,50.38
2022-08-26T07:06:26.062Z,50.62
2022-08-26T07:08:54.679Z,50.35
2022-08-26T07:11:22.028Z,50.62
2022-08-26T07:13:51.231Z,50.50
2022-08-26T07:16:18.840Z,50.57
2022-08-26T07:18:52.980Z,50.78
2022-08-26T07:21:20.930Z,50.45
2022-08-26T07:23:49.350Z,50.32
2022-08-26T07:26:20.556Z,50.30
2022-08-26T07:28:50.594Z,50.48
2022-08-26T07:31:22.882Z,50.14
2022-08-26T07:33:49.787Z,49.92
2022-08-26T07:36:19.161Z,50.15
2022-08-26T07:38:54.236Z,49.94
2022-08-26T07:41:27.079Z,49.47
2022-08-26T07:43:54.561Z,49.23
2022-08-26T07:46:27.520Z,49.12
2022-08-26T07:48:58.105Z,48.86
2022-08-26T07:51:25.842Z,48.72
2022-08-26T07:53:53.385Z,47.89
2022-08-26T07:56:23.452Z,47.75
2022-08-26T07:58:53.395Z,47.78
2022-08-26T08:01:23.654Z,47.90
2022-08-26T08:03:54.053Z,47.04
2022-08-26T08:06:23.391Z,46.84
2022-08-26T08:08:55.183Z,47.15
2022-08-26T08:11:23.056Z,46.92
2022-08-26T08:13:55.920Z,46.60
2022-08-26T08:16:25.998Z,46.52
2022-08-26T08:18:55.609Z,46.77
2022-08-26T08:21:24.713Z,46.18
2022-08-26T08:23:56.490Z,46.20
2022-08-26T08:26:24.152Z,46.67
2022-08-26T08:28:53.921Z,46.16
2022-08-26T08:34:13.765Z,46.50
2022-08-26T08:36:40.458Z,46.08
2022-08-26T08:39:09.582Z,46.18
2022-08-26T08:42:09.001Z,45.80
2022-08-26T08:44:38.547Z,46.43
2022-08-26T08:47:17.791Z,46.77
2022-08-26T08:49:45.155Z,46.49
2022-08-26T08:52:29.086Z,45.86
2022-08-26T08:54:56.138Z,46.39
2022-08-26T08:57:50.404Z,46.00
2022-08-26T09:00:30.563Z,45.60
2022-08-26T09:03:03.983Z,45.73
2022-08-26T09:05:40.229Z,45.18
2022-08-26T09:08:21.588Z,45.30
2022-08-26T09:10:56.104Z,45.02
2022-08-26T09:13:25.374Z,44.83
2022-08-26T09:16:10.455Z,44.59
2022-08-26T09:18:46.022Z,44.40
2022-08-26T09:21:15.267Z,44.61
2022-08-26T09:23:49.346Z,44.29
2022-08-26T09:26:35.058Z,44.45
2022-08-26T09:29:05.733Z,44.72
2022-08-26T09:31:35.848Z,44.59
2022-08-26T09:34:19.781Z,44.11
2022-08-26T09:36:54.687Z,43.81
2022-08-26T09:39:24.202Z,43.81
2022-08-26T09:42:08.038Z,44.00
2022-08-26T09:44:59.617Z,43.83
2022-08-26T09:47:46.486Z,43.49
2022-08-26T09:50:29.169Z,43.62
2022-08-26T09:53:16.534Z,42.98
2022-08-26T09:55:48.458Z,43.35
2022-08-26T09:58:31.649Z,43.40
2022-08-26T10:01:03.299Z,43.63
2022-08-26T10:03:35.718Z,43.36
2022-08-26T10:06:08.337Z,42.99
2022-08-26T10:08:47.477Z,42.79
2022-08-26T10:11:30.524Z,42.96
2022-08-26T10:14:05.035Z,42.94
2022-08-26T10:17:09.547Z,43.12
2022-08-26T10:19:56.186Z,42.56
2022-08-26T10:22:47.959Z,43.03
2022-08-26T10:25:22.076Z,42.61
2022-08-26T10:28:04.482Z,42.45
2022-08-26T10:30:38.774Z,42.50
2022-08-26T10:33:12.438Z,42.86
2022-08-26T10:35:49.009Z,43.23
2022-08-26T10:38:19.064Z,42.73
2022-08-26T10:41:09.792Z,42.79
2022-08-26T10:43:45.529Z,42.76
2022-08-26T10:46:17.366Z,43.34
2022-08-26T10:49:00.014Z,43.77
2022-08-26T10:51:35.578Z,44.47
2022-08-26T10:54:09.412Z,45.00
2022-08-26T10:56:57.378Z,45.07
2022-08-26T10:59:46.299Z,45.00
2022-08-26T11:02:34.126Z,44.69
2022-08-26T11:05:28.011Z,44.86
2022-08-26T11:08:20.815Z,45.73
2022-08-26T11:11:00.289Z,46.33
2022-08-26T11:14:06.047Z,46.22
2022-08-26T11:16:42.917Z,45.87
2022-08-26T11:19:50.552Z,45.64
2022-08-26T11:22:31.173Z,44.89
2022-08-26T11:24:57.820Z,44.68
2022-08-26T11:27:51.695Z,44.86
2022-08-26T11:30:21.391Z,44.69
2022-08-26T11:32:54.000Z,44.56
2022-08-26T11:35:21.862Z,44.52
2022-08-26T11:37:48.549Z,44.25
2022-08-26T11:40:20.620Z,44.79
2022-08-26T11:43:00.787Z,45.08
2022-08-26T11:45:38.930Z,44.70
2022-08-26T11:48:30.629Z,44.86
2022-08-26T11:50:57.722Z,45.57
2022-08-26T11:53:26.079Z,45.25
2022-08-26T11:55:55.914Z,45.29
2022-08-26T11:58:24.294Z,45.21
2022-08-26T12:01:03.754Z,45.21
2022-08-26T12:03:47.736Z,44.94
2022-08-26T12:06:29.230Z,45.04
2022-08-26T12:08:59.860Z,44.37
2022-08-26T12:11:33.078Z,45.05
2022-08-26T12:14:24.565Z,44.44
2022-08-26T12:16:53.638Z,44.20
2022-08-26T12:19:33.041Z,44.07
2022-08-26T12:22:03.274Z,44.41
2022-08-26T12:24:30.746Z,44.48
2022-08-26T12:27:15.982Z,44.94
2022-08-26T12:29:43.016Z,44.54
2022-08-26T12:32:17.720Z,44.36
2022-08-26T12:34:46.065Z,44.47
2022-08-26T12:37:14.413Z,43.64
2022-08-26T12:39:44.178Z,43.43
2022-08-26T12:42:15.624Z,43.40
2022-08-26T12:44:53.096Z,43.08
2022-08-26T12:47:42.164Z,42.40
2022-08-26T12:50:18.850Z,42.52
2022-08-26T12:53:04.505Z,41.76
2022-08-26T12:56:25.042Z,41.33
2022-08-26T12:59:23.828Z,41.44
2022-08-26T13:01:51.253Z,41.35
2022-08-26T13:04:41.897Z,40.74
2022-08-26T13:07:27.076Z,41.38
2022-08-26T13:09:59.031Z,41.05
2022-08-26T13:12:25.949Z,40.95
2022-08-26T13:14:53.923Z,41.53
2022-08-26T13:17:21.498Z,41.15
2022-08-26T13:19:48.475Z,41.51
2022-08-26T13:22:17.554Z,41.19
2022-08-26T13:24:44.802Z,40.89
2022-08-26T13:27:13.738Z,40.89
2022-08-26T13:29:41.530Z,40.64
2022-08-26T13:32:09.145Z,40.29
2022-08-26T13:34:37.194Z,40.23
2022-08-26T13:37:04.788Z,39.33
2022-08-26T13:39:32.121Z,39.84
2022-08-26T13:41:59.146Z,39.66
2022-08-26T13:44:25.857Z,39.32
2022-08-26T13:46:52.743Z,39.38
2022-08-26T13:49:19.416Z,39.95
2022-08-26T13:51:46.137Z,39.49
2022-08-26T13:54:14.559Z,39.23
2022-08-26T13:56:41.425Z,40.13
2022-08-26T13:59:08.170Z,40.32
2022-08-26T14:01:35.854Z,40.31
2022-08-26T14:04:03.286Z,40.65
2022-08-26T14:06:30.370Z,40.35
2022-08-26T14:08:57.267Z,39.85
2022-08-26T14:11:25.089Z,39.66
2022-08-26T14:13:52.379Z,39.49
2022-08-26T14:16:24.192Z,38.63
2022-08-26T14:18:51.489Z,38.46
2022-08-26T14:21:18.535Z,38.11
2022-08-26T14:23:45.325Z,37.27
2022-08-26T14:26:21.219Z,38.24
2022-08-26T14:28:55.629Z,38.29
2022-08-26T14:31:23.867Z,37.97
2022-08-26T14:33:50.829Z,37.76
2022-08-26T14:36:29.414Z,38.37
2022-08-26T14:38:58.183Z,38.02
2022-08-26T14:41:25.428Z,37.48
2022-08-26T14:44:00.196Z,37.54
2022-08-26T14:46:32.265Z,37.51
2022-08-26T14:49:01.487Z,37.33
2022-08-26T14:51:29.853Z,37.65
2022-08-26T14:54:12.501Z,37.83
2022-08-26T14:57:00.481Z,37.66
2022-08-26T14:59:33.842Z,37.54
2022-08-26T15:02:01.038Z,37.49
2022-08-26T15:04:28.827Z,37.84
2022-08-26T15:06:58.642Z,37.56
2022-08-26T15:09:26.324Z,37.37
2022-08-26T15:11:54.641Z,37.93
2022-08-26T15:14:21.937Z,38.20
2022-08-26T15:16:50.166Z,38.89
2022-08-26T15:19:18.326Z,39.84
2022-08-26T15:21:46.969Z,40.69
2022-08-26T15:24:16.026Z,40.34
2022-08-26T15:26:43.626Z,40.10
2022-08-26T15:29:10.473Z,39.81
2022-08-26T15:31:37.586Z,39.29
2022-08-26T15:34:06.990Z,38.69
2022-08-26T15:36:34.565Z,37.43
2022-08-26T15:39:01.778Z,36.38
2022-08-26T15:41:29.504Z,35.05
2022-08-26T15:43:57.572Z,36.10
2022-08-26T15:46:25.158Z,36.23
2022-08-26T15:48:52.225Z,36.10
2022-08-26T15:51:24.811Z,36.39
2022-08-26T15:53:52.626Z,36.59
2022-08-26T15:56:19.836Z,36.81
2022-08-26T15:58:47.127Z,37.66
2022-08-26T16:01:27.762Z,38.72
2022-08-26T16:03:58.187Z,38.74
2022-08-26T16:06:27.737Z,38.84
2022-08-26T16:08:56.104Z,39.21
2022-08-26T16:11:23.818Z,39.56
2022-08-26T16:13:51.311Z,40.36
2022-08-26T16:16:19.407Z,41.41
2022-08-26T16:18:47.633Z,41.91
2022-08-26T16:21:19.494Z,42.88
2022-08-26T16:23:47.630Z,42.86
2022-08-26T16:26:17.448Z,43.46
2022-08-26T16:28:44.526Z,43.97
2022-08-26T16:31:11.411Z,44.25
2022-08-26T16:33:38.283Z,45.11
2022-08-26T16:36:05.862Z,45.18
2022-08-26T16:38:33.445Z,45.71
2022-08-26T16:41:01.163Z,45.64
2022-08-26T16:43:28.379Z,44.83
2022-08-26T16:45:55.957Z,43.50
2022-08-26T16:48:23.761Z,39.44
2022-08-26T16:50:51.667Z,35.30
2022-08-26T16:53:19.024Z,32.94
2022-08-26T16:55:47.815Z,33.42
2022-08-26T16:58:14.978Z,34.63
2022-08-26T17:00:42.266Z,35.33
2022-08-26T17:03:10.044Z,37.09
2022-08-26T17:05:37.142Z,37.89
2022-08-26T17:08:05.025Z,39.09
2022-08-26T17:10:32.822Z,39.10
2022-08-26T17:13:00.354Z,39.67
2022-08-26T17:15:27.169Z,40.83
2022-08-26T17:17:54.715Z,41.77
2022-08-26T17:20:22.826Z,42.86
2022-08-26T17:22:51.019Z,43.21
2022-08-26T17:25:30.358Z,43.61
2022-08-26T17:27:57.757Z,44.29
2022-08-26T17:30:25.849Z,44.97
2022-08-26T17:32:54.627Z,45.15
2022-08-26T17:35:22.151Z,46.00
2022-08-26T17:37:49.114Z,45.82
2022-08-26T17:40:19.180Z,46.60
2022-08-26T17:42:45.944Z,47.01
2022-08-26T17:45:13.164Z,47.00
2022-08-26T17:47:41.185Z,47.22
2022-08-26T17:50:10.865Z,46.67
2022-08-26T17:52:38.522Z,47.09
2022-08-26T17:55:07.089Z,47.25
2022-08-26T17:57:40.451Z,47.27
2022-08-26T18:00:11.257Z,47.24
2022-08-26T18:02:38.829Z,47.10
2022-08-26T18:05:06.770Z,46.98
2022-08-26T18:07:33.668Z,46.92
2022-08-26T18:10:13.482Z,46.92
2022-08-26T18:12:41.452Z,47.36
2022-08-26T18:15:09.427Z,47.35
2022-08-26T18:17:36.395Z,46.96
2022-08-26T18:20:03.737Z,47.13
2022-08-26T18:22:30.510Z,47.32
2022-08-26T18:24:59.432Z,47.48
2022-08-26T18:27:26.565Z,47.43
2022-08-26T18:29:54.600Z,47.79
2022-08-26T18:32:21.604Z,47.95
2022-08-26T18:34:48.483Z,47.98
2022-08-26T18:37:17.982Z,48.08
2022-08-26T18:39:45.030Z,47.83
2022-08-26T18:42:11.814Z,48.04
2022-08-26T18:44:38.620Z,48.07
2022-08-26T18:47:05.462Z,48.25
2022-08-26T18:49:32.392Z,48.40
2022-08-26T18:51:59.178Z,48.61
2022-08-26T18:54:25.960Z,48.46
2022-08-26T18:56:53.047Z,48.52
2022-08-26T18:59:19.858Z,48.93
2022-08-26T19:01:56.487Z,48.87
2022-08-26T19:04:23.316Z,48.84
2022-08-26T19:06:53.515Z,48.80
2022-08-26T19:09:20.909Z,48.92
2022-08-26T19:11:49.605Z,48.74
2022-08-26T19:14:17.479Z,48.80
2022-08-26T19:16:52.645Z,48.90
2022-08-26T19:19:21.153Z,49.07
2022-08-26T19:21:47.987Z,49.11
2022-08-26T19:24:17.683Z,49.37
2022-08-26T19:26:47.654Z,48.98
2022-08-26T19:29:15.579Z,49.37
2022-08-26T19:31:44.068Z,49.33
2022-08-26T19:34:13.214Z,49.04
2022-08-26T19:36:44.760Z,48.92
2022-08-26T19:39:13.538Z,49.04
2022-08-26T19:41:40.890Z,49.06
2022-08-26T19:44:11.464Z,49.57
2022-08-26T19:49:10.037Z,49.29
2022-08-26T19:51:36.923Z,49.29
2022-08-26T19:54:04.382Z,49.43
2022-08-26T19:56:31.676Z,49.61
2022-08-26T19:58:58.608Z,49.85
2022-08-26T20:01:25.814Z,49.61
2022-08-26T20:03:53.059Z,49.99
2022-08-26T20:06:20.204Z,49.78
2022-08-26T20:08:47.266Z,49.96
2022-08-26T20:11:16.255Z,50.12
2022-08-26T20:13:43.878Z,50.08
2022-08-26T20:16:12.075Z,49.78
2022-08-26T20:19:01.737Z,49.93
2022-08-26T20:21:31.616Z,50.06
2022-08-26T20:24:04.582Z,50.24
2022-08-26T20:26:34.653Z,50.01
2022-08-26T20:29:01.444Z,50.55
2022-08-26T20:31:28.874Z,50.36
2022-08-26T20:33:55.989Z,50.04
2022-08-26T20:36:24.045Z,50.25
2022-08-26T20:38:50.861Z,50.05
2022-08-26T20:41:17.930Z,50.36
2022-08-26T20:43:44.843Z,50.55
2022-08-26T20:46:18.056Z,50.63
2022-08-26T20:48:47.810Z,50.52
2022-08-26T20:51:15.456Z,50.33
2022-08-26T20:53:42.569Z,50.57
2022-08-26T20:56:10.602Z,50.94
2022-08-26T20:58:38.735Z,51.07
2022-08-26T21:01:08.045Z,51.12
2022-08-26T21:03:36.218Z,50.93
2022-08-26T21:06:03.797Z,51.31
2022-08-26T21:08:33.367Z,51.27
2022-08-26T21:11:00.847Z,51.35
2022-08-26T21:13:35.796Z,51.74
2022-08-26T21:16:10.140Z,51.85
2022-08-26T21:18:37.053Z,51.94
2022-08-26T21:21:06.356Z,51.79
2022-08-26T21:23:33.483Z,52.54
2022-08-26T21:26:09.395Z,52.70
2022-08-26T21:31:05.287Z,53.09
2022-08-26T21:33:32.305Z,52.95
2022-08-26T21:35:59.421Z,53.52
2022-08-26T21:38:26.254Z,53.71
2022-08-26T21:40:58.486Z,53.42
2022-08-26T21:43:35.020Z,53.42
2022-08-26T21:46:14.578Z,53.64
2022-08-26T21:48:54.001Z,54.19
2022-08-26T21:51:23.422Z,54.31
2022-08-26T21:53:52.782Z,54.10
2022-08-26T21:56:20.838Z,54.42
2022-08-26T21:58:47.805Z,54.53
2022-08-26T22:01:17.768Z,54.91
2022-08-26T22:03:47.590Z,55.12
2022-08-26T22:06:19.230Z,54.78
2022-08-26T22:08:46.087Z,54.91
2022-08-26T22:11:13.491Z,55.15
2022-08-26T22:13:41.567Z,55.75
2022-08-26T22:16:09.511Z,55.27
2022-08-26T22:18:36.811Z,55.86
2022-08-26T22:21:08.434Z,55.59
2022-08-26T22:23:36.830Z,55.45
2022-08-26T22:26:06.011Z,55.81
2022-08-26T22:28:32.977Z,55.32
2022-08-26T22:30:59.622Z,55.58
2022-08-26T22:33:26.400Z,55.72
2022-08-26T22:35:53.823Z,56.09
2022-08-26T22:38:20.907Z,56.10
2022-08-26T22:40:50.781Z,56.63
2022-08-26T22:43:18.990Z,56.29
2022-08-26T22:45:47.617Z,56.63
2022-08-26T22:48:17.464Z,56.50
2022-08-26T22:50:46.366Z,56.60
2022-08-26T22:53:14.241Z,57.12
2022-08-26T22:55:41.345Z,56.97
2022-08-26T22:58:08.545Z,56.98
2022-08-26T23:00:36.202Z,56.94
2022-08-26T23:03:04.604Z,57.21
2022-08-26T23:05:32.522Z,57.08
2022-08-26T23:07:59.716Z,56.77
2022-08-26T23:10:26.877Z,57.28
2022-08-26T23:12:54.001Z,57.22
2022-08-26T23:15:22.003Z,57.02
2022-08-26T23:17:51.377Z,56.85
2022-08-26T23:20:27.026Z,57.21
2022-08-26T23:22:54.772Z,57.18
2022-08-26T23:25:22.186Z,57.64
2022-08-26T23:27:51.675Z,57.88
2022-08-26T23:30:21.555Z,57.32
2022-08-26T23:32:49.088Z,57.74
2022-08-26T23:35:21.586Z,57.94
2022-08-26T23:37:53.087Z,57.80
2022-08-26T23:40:35.196Z,57.66
2022-08-26T23:43:04.986Z,57.85
2022-08-26T23:45:33.243Z,57.37
2022-08-26T23:48:00.637Z,57.18
2022-08-26T23:50:49.299Z,57.46
2022-08-26T23:53:20.613Z,57.29
2022-08-26T23:55:50.271Z,57.82
2022-08-26T23:58:19.352Z,57.37
